Observation data for Northwest Lubbock on 08/13/2020      Previous  Date       Current Mesonet Observations  Soil Data  Daily Summary Page  Observations in Plain Language
KLBW 130500Z 20006KT 30/11 A2999 RMK A01 T03020105  RH  030%=      5-min Rain = 0
KLBW 130505Z 20006KT 30/11 A30 RMK A01 T03000105  RH  031%=      5-min Rain = 0
KLBW 130510Z 19006KT 30/11 A30 RMK A01 T02990105  RH  031%=      5-min Rain = 0
KLBW 130515Z 20005KT 30/11 A30 RMK A01 T02970106  RH  032%=      5-min Rain = 0
KLBW 130520Z 19005KT 29/11 A2999 RMK A01 T02930106  RH  032%=      5-min Rain = 0
KLBW 130525Z 18005KT 29/11 A2999 RMK A01 T02920107  RH  033%=      5-min Rain = 0
KLBW 130530Z 17005KT 29/11 A2999 RMK A01 T02910107  RH  033%=      5-min Rain = 0
KLBW 130535Z 17006KT 29/11 A2999 RMK A01 T02910107  RH  033%=      5-min Rain = 0
KLBW 130540Z 17006KT 29/11 A2999 RMK A01 T02920107  RH  033%=      5-min Rain = 0
KLBW 130545Z 18006KT 29/11 A2999 RMK A01 T02920108  RH  033%=      5-min Rain = 0
KLBW 130550Z 18007KT 29/11 A2999 RMK A01 T02920108  RH  033%=      5-min Rain = 0
KLBW 130555Z 18006KT 29/11 A2999 RMK A01 T02920109  RH  033%=      5-min Rain = 0
KLBW 130600Z 18007KT 29/11 A2999 RMK A01 T02930110  RH  033%=      5-min Rain = 0
KLBW 130605Z 18008G13KT 29/11 A2999 RMK A01 T02940110  RH  033%=      5-min Rain = 0
KLBW 130610Z 18009G15KT 30/11 A2999 RMK A01 T02970110  RH  032%=      5-min Rain = 0
KLBW 130615Z 19010KT 30/11 A2999 RMK A01 T02990110  RH  032%=      5-min Rain = 0
KLBW 130620Z 19011G16KT 30/11 A2999 RMK A01 T03010110  RH  032%=      5-min Rain = 0
KLBW 130625Z 19010KT 30/11 A2999 RMK A01 T03010111  RH  032%=      5-min Rain = 0
KLBW 130630Z 19010G17KT 30/11 A2999 RMK A01 T03010112  RH  032%=      5-min Rain = 0
KLBW 130635Z 19010G15KT 30/11 A2999 RMK A01 T03000112  RH  032%=      5-min Rain = 0
KLBW 130640Z 19010G15KT 30/11 A2999 RMK A01 T02990113  RH  033%=      5-min Rain = 0
KLBW 130645Z 19011KT 30/11 A2999 RMK A01 T02980114  RH  033%=      5-min Rain = 0
KLBW 130650Z 19010KT 30/11 A2999 RMK A01 T02970114  RH  033%=      5-min Rain = 0
KLBW 130655Z 19011KT 30/11 A2999 RMK A01 T02950114  RH  034%=      5-min Rain = 0
KLBW 130700Z 19010G16KT 29/12 A2999 RMK A01 T02940115  RH  034%=      5-min Rain = 0
KLBW 130705Z 19009KT 29/12 A2999 RMK A01 T02920115  RH  035%=      5-min Rain = 0
KLBW 130710Z 20010G15KT 29/12 A2999 RMK A01 T02910115  RH  035%=      5-min Rain = 0
KLBW 130715Z 20009G15KT 29/12 A30 RMK A01 T02910116  RH  035%=      5-min Rain = 0
KLBW 130720Z 20011KT 29/12 A30 RMK A01 T02910116  RH  035%=      5-min Rain = 0
KLBW 130725Z 19010KT 29/12 A30 RMK A01 T02890117  RH  036%=      5-min Rain = 0
KLBW 130730Z 20010KT 29/12 A30 RMK A01 T02880117  RH  036%=      5-min Rain = 0
KLBW 130735Z 19010G16KT 29/12 A30 RMK A01 T02880118  RH  036%=      5-min Rain = 0
KLBW 130740Z 19009G14KT 29/12 A30 RMK A01 T02860118  RH  037%=      5-min Rain = 0
KLBW 130745Z 19011KT 29/12 A30 RMK A01 T02860119  RH  037%=      5-min Rain = 0
KLBW 130750Z 20010KT 29/12 A30 RMK A01 T02850119  RH  037%=      5-min Rain = 0
KLBW 130755Z 20009KT 28/12 A30 RMK A01 T02830120  RH  038%=      5-min Rain = 0
KLBW 130800Z 20009KT 28/12 A30 RMK A01 T02810121  RH  038%=      5-min Rain = 0
KLBW 130805Z 20009KT 28/12 A30 RMK A01 T02800121  RH  039%=      5-min Rain = 0
KLBW 130810Z 20009KT 28/12 A30 RMK A01 T02790122  RH  039%=      5-min Rain = 0
KLBW 130815Z 20009KT 28/12 A30 RMK A01 T02790123  RH  039%=      5-min Rain = 0
KLBW 130820Z 20009G14KT 28/12 A30 RMK A01 T02790124  RH  040%=      5-min Rain = 0
KLBW 130825Z 19011KT 28/13 A30 RMK A01 T02790125  RH  040%=      5-min Rain = 0
KLBW 130830Z 20010KT 28/13 A30 RMK A01 T02790126  RH  040%=      5-min Rain = 0
KLBW 130835Z 20010KT 28/13 A2999 RMK A01 T02780127  RH  041%=      5-min Rain = 0
KLBW 130840Z 20011G16KT 28/13 A2999 RMK A01 T02770127  RH  041%=      5-min Rain = 0
KLBW 130845Z 20010KT 28/13 A2999 RMK A01 T02770128  RH  041%=      5-min Rain = 0
KLBW 130850Z 21010KT 28/13 A2999 RMK A01 T02750128  RH  042%=      5-min Rain = 0
KLBW 130855Z 20011G18KT 27/13 A2999 RMK A01 T02740129  RH  042%=      5-min Rain = 0
KLBW 130900Z 21011KT 27/13 A30 RMK A01 T02720129  RH  043%=      5-min Rain = 0
KLBW 130905Z 21010KT 27/13 A30 RMK A01 T02680128  RH  044%=      5-min Rain = 0
KLBW 130910Z 21009KT 27/13 A30 RMK A01 T02660129  RH  044%=      5-min Rain = 0
KLBW 130915Z 21010KT 27/13 A30 RMK A01 T02660130  RH  045%=      5-min Rain = 0
KLBW 130920Z 21009KT 27/13 A30 RMK A01 T02650131  RH  045%=      5-min Rain = 0
KLBW 130925Z 21010KT 27/13 A30 RMK A01 T02650132  RH  045%=      5-min Rain = 0
KLBW 130930Z 21009G14KT 27/13 A30 RMK A01 T02650132  RH  046%=      5-min Rain = 0
KLBW 130935Z 21011KT 27/13 A30 RMK A01 T02670132  RH  045%=      5-min Rain = 0
KLBW 130940Z 22011G17KT 27/13 A30 RMK A01 T02680132  RH  045%=      5-min Rain = 0
KLBW 130945Z 22011KT 27/13 A30 RMK A01 T02670132  RH  045%=      5-min Rain = 0
KLBW 130950Z 23010G15KT 27/13 A30 RMK A01 T02670131  RH  045%=      5-min Rain = 0
KLBW 130955Z 23010G16KT 27/13 A30 RMK A01 T02660131  RH  045%=      5-min Rain = 0
KLBW 131000Z 23010G16KT 26/13 A30 RMK A01 T02640131  RH  046%=      5-min Rain = 0
KLBW 131005Z 23011G16KT 26/13 A30 RMK A01 T02640131  RH  046%=      5-min Rain = 0
KLBW 131010Z 23010KT 26/13 A30 RMK A01 T02630131  RH  046%=      5-min Rain = 0
KLBW 131015Z 23009KT 26/13 A30 RMK A01 T02610131  RH  046%=      5-min Rain = 0
KLBW 131020Z 24009KT 26/13 A3001 RMK A01 T02600131  RH  047%=      5-min Rain = 0
KLBW 131025Z 23008G14KT 26/13 A3001 RMK A01 T02590132  RH  047%=      5-min Rain = 0
KLBW 131030Z 23009KT 26/13 A3001 RMK A01 T02590132  RH  047%=      5-min Rain = 0
KLBW 131035Z 23009KT 26/13 A3001 RMK A01 T02590132  RH  047%=      5-min Rain = 0
KLBW 131040Z 23010G16KT 26/13 A30 RMK A01 T02590132  RH  047%=      5-min Rain = 0
KLBW 131045Z 23009KT 26/13 A30 RMK A01 T02580132  RH  048%=      5-min Rain = 0
KLBW 131050Z 23010G15KT 26/13 A30 RMK A01 T02580132  RH  048%=      5-min Rain = 0
KLBW 131055Z 23010G16KT 26/13 A30 RMK A01 T02580133  RH  048%=      5-min Rain = 0
KLBW 131100Z 23010G15KT 26/13 A30 RMK A01 T02580133  RH  048%=      5-min Rain = 0
KLBW 131105Z 22011G17KT 26/13 A30 RMK A01 T02580133  RH  048%=      5-min Rain = 0
KLBW 131110Z 22012G18KT 26/13 A30 RMK A01 T02590133  RH  048%=      5-min Rain = 0
KLBW 131115Z 22011KT 26/13 A30 RMK A01 T02600133  RH  048%=      5-min Rain = 0
KLBW 131120Z 23010KT 26/13 A30 RMK A01 T02590134  RH  048%=      5-min Rain = 0
KLBW 131125Z 23010G15KT 26/13 A30 RMK A01 T02580134  RH  048%=      5-min Rain = 0
KLBW 131130Z 23011G16KT 26/13 A30 RMK A01 T02580134  RH  048%=      5-min Rain = 0
KLBW 131135Z 23010KT 26/13 A30 RMK A01 T02570134  RH  048%=      5-min Rain = 0
KLBW 131140Z 25009KT 26/13 A3001 RMK A01 T02550134  RH  049%=      5-min Rain = 0
KLBW 131145Z 25009KT 25/13 A3001 RMK A01 T02530134  RH  050%=      5-min Rain = 0
KLBW 131150Z 24008KT 25/13 A3001 RMK A01 T02510133  RH  050%=      5-min Rain = 0
KLBW 131155Z 24007KT 25/13 A3001 RMK A01 T02490134  RH  051%=      5-min Rain = 0
KLBW 131200Z 24008KT 25/13 A3001 RMK A01 T02480133  RH  051%=      5-min Rain = 0
KLBW 131205Z 23008G13KT 25/13 A3001 RMK A01 T02490134  RH  051%=      5-min Rain = 0
KLBW 131210Z 24007G12KT 25/13 A3001 RMK A01 T02500134  RH  051%=      5-min Rain = 0
KLBW 131215Z 23008KT 25/14 A3001 RMK A01 T02490135  RH  051%=      5-min Rain = 0
KLBW 131220Z 25007KT 25/14 A3002 RMK A01 T02500135  RH  051%=      5-min Rain = 0
KLBW 131225Z 26007G12KT 25/14 A3002 RMK A01 T02480136  RH  052%=      5-min Rain = 0
KLBW 131230Z 25006KT 25/14 A3002 RMK A01 T02480137  RH  052%=      5-min Rain = 0
KLBW 131235Z 25007KT 25/14 A3002 RMK A01 T02480137  RH  052%=      5-min Rain = 0
KLBW 131240Z 25006KT 25/14 A3002 RMK A01 T02500138  RH  052%=      5-min Rain = 0
KLBW 131245Z 25007KT 25/14 A3002 RMK A01 T02500138  RH  052%=      5-min Rain = 0
KLBW 131250Z 25005KT 25/14 A3002 RMK A01 T02510139  RH  052%=      5-min Rain = 0
KLBW 131255Z 23005KT 25/14 A3002 RMK A01 T02520139  RH  052%=      5-min Rain = 0
KLBW 131300Z 22006KT 25/14 A3002 RMK A01 T02540140  RH  051%=      5-min Rain = 0
KLBW 131305Z 23005KT 26/14 A3002 RMK A01 T02550140  RH  051%=      5-min Rain = 0
KLBW 131310Z 23007KT 26/14 A3003 RMK A01 T02560140  RH  051%=      5-min Rain = 0
KLBW 131315Z 22005KT 26/14 A3003 RMK A01 T02590141  RH  050%=      5-min Rain = 0
KLBW 131320Z 21006KT 26/14 A3002 RMK A01 T02610142  RH  050%=      5-min Rain = 0
KLBW 131325Z 22007KT 26/14 A3002 RMK A01 T02610141  RH  050%=      5-min Rain = 0
KLBW 131330Z 22008KT 26/14 A3002 RMK A01 T02630142  RH  049%=      5-min Rain = 0
KLBW 131335Z 22009G15KT 27/14 A3002 RMK A01 T02660142  RH  049%=      5-min Rain = 0
KLBW 131340Z 22011G16KT 27/14 A3002 RMK A01 T02690142  RH  048%=      5-min Rain = 0
KLBW 131345Z 22010KT 27/14 A3002 RMK A01 T02720143  RH  047%=      5-min Rain = 0
KLBW 131350Z 22012G17KT 27/14 A3002 RMK A01 T02740143  RH  047%=      5-min Rain = 0
KLBW 131355Z 22011G17KT 28/14 A3002 RMK A01 T02770144  RH  046%=      5-min Rain = 0
KLBW 131400Z 22011G17KT 28/14 A3002 RMK A01 T02780144  RH  046%=      5-min Rain = 0
KLBW 131405Z 23011G16KT 28/14 A3002 RMK A01 T02810144  RH  045%=      5-min Rain = 0
KLBW 131410Z 21012G19KT 28/15 A3002 RMK A01 T02840145  RH  045%=      5-min Rain = 0
KLBW 131415Z 21014G21KT 29/15 A3002 RMK A01 T02860145  RH  044%=      5-min Rain = 0
KLBW 131420Z 21010G15KT 29/15 A3002 RMK A01 T02890147  RH  044%=      5-min Rain = 0
KLBW 131425Z 21013G20KT 29/15 A3002 RMK A01 T02910147  RH  043%=      5-min Rain = 0
KLBW 131430Z 22015G20KT 29/15 A3002 RMK A01 T02910147  RH  043%=      5-min Rain = 0
KLBW 131435Z 21013KT 29/15 A3002 RMK A01 T02920147  RH  043%=      5-min Rain = 0
KLBW 131440Z 21011G16KT 30/15 A3002 RMK A01 T02950149  RH  043%=      5-min Rain = 0
KLBW 131445Z 22012G19KT 30/15 A3002 RMK A01 T02980149  RH  042%=      5-min Rain = 0
KLBW 131450Z 22014KT 30/15 A3002 RMK A01 T02970148  RH  042%=      5-min Rain = 0
KLBW 131455Z 22014G19KT 30/15 A3002 RMK A01 T03000148  RH  041%=      5-min Rain = 0
KLBW 131500Z 22013KT 30/15 A3002 RMK A01 T03020148  RH  041%=      5-min Rain = 0
KLBW 131505Z 22012KT 31/15 A3002 RMK A01 T03050148  RH  040%=      5-min Rain = 0
KLBW 131510Z 22010KT 31/15 A3002 RMK A01 T03100150  RH  040%=      5-min Rain = 0
KLBW 131515Z 23010G15KT 32/15 A3002 RMK A01 T03160150  RH  038%=      5-min Rain = 0
KLBW 131520Z 22009KT 32/15 A3002 RMK A01 T03180149  RH  038%=      5-min Rain = 0
KLBW 131525Z 21011KT 32/14 A3003 RMK A01 T03200143  RH  036%=      5-min Rain = 0
KLBW 131530Z 22010KT 32/14 A3003 RMK A01 T03220142  RH  035%=      5-min Rain = 0
KLBW 131535Z 24008KT 32/15 A3003 RMK A01 T03230146  RH  036%=      5-min Rain = 0
KLBW 131540Z 22008KT 33/14 A3004 RMK A01 T03260143  RH  034%=      5-min Rain = 0
KLBW 131545Z 23009G14KT 33/14 A3004 RMK A01 T03300142  RH  033%=      5-min Rain = 0
KLBW 131550Z 24009KT 33/14 A3004 RMK A01 T03290141  RH  034%=      5-min Rain = 0
KLBW 131555Z 21008G15KT 33/14 A3004 RMK A01 T03330144  RH  033%=      5-min Rain = 0
KLBW 131600Z 21009KT 33/14 A3004 RMK A01 T03340143  RH  033%=      5-min Rain = 0
KLBW 131605Z 21009KT 34/14 A3004 RMK A01 T03380141  RH  032%=      5-min Rain = 0
KLBW 131610Z 21009KT 34/14 A3004 RMK A01 T03370143  RH  032%=      5-min Rain = 0
KLBW 131615Z 22010KT 34/14 A3004 RMK A01 T03370143  RH  032%=      5-min Rain = 0
KLBW 131620Z 19009G14KT 34/14 A3004 RMK A01 T03400142  RH  032%=      5-min Rain = 0
KLBW 131625Z 19010KT 34/14 A3004 RMK A01 T03420141  RH  031%=      5-min Rain = 0
KLBW 131630Z 20010G15KT 35/14 A3004 RMK A01 T03450140  RH  031%=      5-min Rain = 0
KLBW 131635Z 21010KT 34/14 A3004 RMK A01 T03440141  RH  031%=      5-min Rain = 0
KLBW 131640Z 20010KT 35/14 A3004 RMK A01 T03480140  RH  030%=      5-min Rain = 0
KLBW 131645Z 19010G15KT 35/14 A3004 RMK A01 T03470138  RH  030%=      5-min Rain = 0
KLBW 131650Z 19010G15KT 35/14 A3004 RMK A01 T03520140  RH  029%=      5-min Rain = 0
KLBW 131655Z 20011G16KT 35/14 A3004 RMK A01 T03530138  RH  029%=      5-min Rain = 0
KLBW 131700Z 20011KT 35/14 A3004 RMK A01 T03510136  RH  029%=      5-min Rain = 0
KLBW 131705Z 19009KT 36/14 A3004 RMK A01 T03570138  RH  028%=      5-min Rain = 0
KLBW 131710Z 20009G15KT 36/14 A3003 RMK A01 T03570138  RH  028%=      5-min Rain = 0
KLBW 131715Z 21008KT 36/13 A3003 RMK A01 T03600133  RH  027%=      5-min Rain = 0
KLBW 131720Z 21009KT 36/13 A3003 RMK A01 T03610132  RH  026%=      5-min Rain = 0
KLBW 131725Z 21009KT 36/13 A3003 RMK A01 T03610131  RH  026%=      5-min Rain = 0
KLBW 131730Z 21009G14KT 36/13 A3003 RMK A01 T03640130  RH  026%=      5-min Rain = 0
KLBW 131735Z 22009KT 37/13 A3003 RMK A01 T03660128  RH  025%=      5-min Rain = 0
KLBW 131740Z 21009KT 37/13 A3003 RMK A01 T03700128  RH  024%=      5-min Rain = 0
KLBW 131745Z 20010G15KT 37/13 A3003 RMK A01 T03730126  RH  024%=      5-min Rain = 0
KLBW 131750Z 21009G14KT 37/13 A3002 RMK A01 T03720127  RH  024%=      5-min Rain = 0
KLBW 131755Z 21007KT 38/13 A3002 RMK A01 T03770126  RH  023%=      5-min Rain = 0
KLBW 131800Z 19010G15KT 38/12 A3002 RMK A01 T03750121  RH  023%=      5-min Rain = 0
KLBW 131805Z 21009G14KT 38/12 A3002 RMK A01 T03760121  RH  023%=      5-min Rain = 0
KLBW 131810Z 21010G15KT 38/13 A3002 RMK A01 T03760125  RH  023%=      5-min Rain = 0
KLBW 131815Z 19010G15KT 38/12 A3001 RMK A01 T03780120  RH  022%=      5-min Rain = 0
KLBW 131820Z 19009KT 39/12 A3001 RMK A01 T03860120  RH  021%=      5-min Rain = 0
KLBW 131825Z 20010G16KT 39/12 A3001 RMK A01 T03870119  RH  021%=      5-min Rain = 0
KLBW 131830Z 21010KT 39/12 A3001 RMK A01 T03860118  RH  021%=      5-min Rain = 0
KLBW 131835Z 18009G17KT 39/12 A30 RMK A01 T03860119  RH  021%=      5-min Rain = 0
KLBW 131840Z 19009G14KT 39/12 A30 RMK A01 T03880115  RH  020%=      5-min Rain = 0
KLBW 131845Z 19011G16KT 39/12 A30 RMK A01 T03870115  RH  020%=      5-min Rain = 0
KLBW 131850Z 21009G14KT 39/11 A2999 RMK A01 T03910110  RH  019%=      5-min Rain = 0
KLBW 131855Z 19009KT 39/11 A2999 RMK A01 T03920109  RH  019%=      5-min Rain = 0
KLBW 131900Z 18011KT 39/12 A2999 RMK A01 T03940115  RH  020%=      5-min Rain = 0
KLBW 131905Z 18011G17KT 40/12 A2999 RMK A01 T03970115  RH  019%=      5-min Rain = 0
KLBW 131910Z 18009G14KT 40/11 A2999 RMK A01 T03990112  RH  019%=      5-min Rain = 0
KLBW 131915Z 17012G17KT 40/11 A2998 RMK A01 T04000114  RH  019%=      5-min Rain = 0
KLBW 131920Z 16011G16KT 40/11 A2998 RMK A01 T03950113  RH  019%=      5-min Rain = 0
KLBW 131925Z 18011KT 40/11 A2998 RMK A01 T03960111  RH  019%=      5-min Rain = 0
KLBW 131930Z 17011G17KT 40/11 A2998 RMK A01 T04020110  RH  018%=      5-min Rain = 0
KLBW 131935Z 16011G16KT 40/11 A2997 RMK A01 T04030109  RH  018%=      5-min Rain = 0
KLBW 131940Z 17012G17KT 41/11 A2997 RMK A01 T04050107  RH  018%=      5-min Rain = 0
KLBW 131945Z 15011G16KT 40/11 A2997 RMK A01 T04000108  RH  018%=      5-min Rain = 0
KLBW 131950Z 18010G15KT 41/11 A2997 RMK A01 T04080110  RH  018%=      5-min Rain = 0
KLBW 131955Z 17011G16KT 41/11 A2997 RMK A01 T04070106  RH  017%=      5-min Rain = 0
KLBW 132000Z 18010G15KT 40/10 A2996 RMK A01 T04030102  RH  017%=      5-min Rain = 0
KLBW 132005Z 18011G17KT 41/10 A2996 RMK A01 T04100097  RH  016%=      5-min Rain = 0
KLBW 132010Z 16008G13KT 41/10 A2996 RMK A01 T04060096  RH  016%=      5-min Rain = 0
KLBW 132015Z 19009G14KT 41/10 A2996 RMK A01 T04120098  RH  016%=      5-min Rain = 0
KLBW 132020Z 20007G12KT 41/10 A2996 RMK A01 T04070095  RH  016%=      5-min Rain = 0
KLBW 132025Z 17007KT 41/10 A2995 RMK A01 T04070097  RH  016%=      5-min Rain = 0
KLBW 132030Z 20007KT 41/10 A2995 RMK A01 T04110097  RH  016%=      5-min Rain = 0
KLBW 132035Z 21009KT 41/10 A2995 RMK A01 T04130099  RH  016%=      5-min Rain = 0
KLBW 132040Z 22005G14KT 41/09 A2995 RMK A01 T04120090  RH  015%=      5-min Rain = 0
KLBW 132045Z 20007G15KT 41/09 A2995 RMK A01 T04120092  RH  015%=      5-min Rain = 0
KLBW 132050Z 19010G16KT 41/09 A2995 RMK A01 T04140089  RH  015%=      5-min Rain = 0
KLBW 132055Z 20008KT 41/09 A2994 RMK A01 T04130088  RH  015%=      5-min Rain = 0
KLBW 132100Z 21007KT 42/09 A2994 RMK A01 T04150092  RH  015%=      5-min Rain = 0
KLBW 132105Z 23006KT 42/09 A2994 RMK A01 T04160090  RH  015%=      5-min Rain = 0
KLBW 132110Z 22009G16KT 42/09 A2994 RMK A01 T04160091  RH  015%=      5-min Rain = 0
KLBW 132115Z 19009G14KT 41/09 A2994 RMK A01 T04130089  RH  015%=      5-min Rain = 0
KLBW 132120Z 17009KT 41/09 A2994 RMK A01 T04130089  RH  015%=      5-min Rain = 0
KLBW 132125Z 16005G10KT 41/09 A2994 RMK A01 T04070087  RH  015%=      5-min Rain = 0
KLBW 132130Z 18004G12KT 40/09 A2993 RMK A01 T04030088  RH  016%=      5-min Rain = 0
KLBW 132135Z 19007G13KT 41/09 A2993 RMK A01 T04130089  RH  015%=      5-min Rain = 0
KLBW 132140Z 19009KT 42/09 A2993 RMK A01 T04200088  RH  014%=      5-min Rain = 0
KLBW 132145Z 18007KT 41/09 A2993 RMK A01 T04120086  RH  015%=      5-min Rain = 0
KLBW 132150Z 18007G13KT 40/09 A2993 RMK A01 T04010085  RH  015%=      5-min Rain = 0
KLBW 132155Z 18009G15KT 40/09 A2993 RMK A01 T04000086  RH  016%=      5-min Rain = 0
KLBW 132200Z 17005G12KT 40/08 A2993 RMK A01 T03950084  RH  016%=      5-min Rain = 0
KLBW 132205Z 19009G14KT 39/09 A2993 RMK A01 T03920085  RH  016%=      5-min Rain = 0
KLBW 132210Z 19008KT 41/09 A2993 RMK A01 T04050088  RH  015%=      5-min Rain = 0
KLBW 132215Z 17009G14KT 41/09 A2993 RMK A01 T04110088  RH  015%=      5-min Rain = 0
KLBW 132220Z 20009KT 40/09 A2993 RMK A01 T04010085  RH  015%=      5-min Rain = 0
KLBW 132225Z 17009KT 39/08 A2993 RMK A01 T03910084  RH  016%=      5-min Rain = 0
KLBW 132230Z 17008KT 39/08 A2993 RMK A01 T03880084  RH  016%=      5-min Rain = 0
KLBW 132235Z 17009KT 39/08 A2993 RMK A01 T03870084  RH  016%=      5-min Rain = 0
KLBW 132240Z 18008KT 39/08 A2993 RMK A01 T03880083  RH  016%=      5-min Rain = 0
KLBW 132245Z 18008G13KT 39/09 A2993 RMK A01 T03870086  RH  017%=      5-min Rain = 0
KLBW 132250Z 22011G16KT 38/10 A2993 RMK A01 T03780102  RH  020%=      5-min Rain = 0
KLBW 132255Z 21009G20KT 37/12 A2993 RMK A01 T03680118  RH  023%=      5-min Rain = 0
KLBW 132300Z 21012G21KT 35/14 A2993 RMK A01 T03470144  RH  031%=      5-min Rain = 0
KLBW 132305Z 21011G17KT 35/15 A2993 RMK A01 T03530145  RH  030%=      5-min Rain = 0
KLBW 132310Z 20013G18KT 36/12 A2993 RMK A01 T03620124  RH  025%=      5-min Rain = 0
KLBW 132315Z 19012G17KT 36/11 A2993 RMK A01 T03620111  RH  023%=      5-min Rain = 0
KLBW 132320Z 18011KT 37/10 A2993 RMK A01 T03680096  RH  020%=      5-min Rain = 0
KLBW 132325Z 21010G15KT 37/11 A2993 RMK A01 T03670107  RH  022%=      5-min Rain = 0
KLBW 132330Z 20008KT 38/10 A2993 RMK A01 T03770101  RH  020%=      5-min Rain = 0
KLBW 132335Z 20008G14KT 39/09 A2993 RMK A01 T03870094  RH  018%=      5-min Rain = 0
KLBW 132340Z 22008KT 38/10 A2993 RMK A01 T03800097  RH  019%=      5-min Rain = 0
KLBW 132345Z 22008KT 38/10 A2993 RMK A01 T03770095  RH  019%=      5-min Rain = 0
KLBW 132350Z 22007KT 38/09 A2993 RMK A01 T03750089  RH  018%=      5-min Rain = 0
KLBW 132355Z 22006KT 37/09 A2993 RMK A01 T03740091  RH  019%=      5-min Rain = 0
KLBW 140000Z 23007G12KT 38/09 A2993 RMK A01 T03790090  RH  018%=      5-min Rain = 0
KLBW 140005Z 23007KT 38/09 A2993 RMK A01 T03830086  RH  017%=      5-min Rain = 0
KLBW 140010Z 21006KT 38/09 A2992 RMK A01 T03840087  RH  017%=      5-min Rain = 0
KLBW 140015Z 21008KT 39/08 A2993 RMK A01 T03850077  RH  016%=      5-min Rain = 0
KLBW 140020Z 21006KT 38/08 A2993 RMK A01 T03840079  RH  016%=      5-min Rain = 0
KLBW 140025Z 20006KT 38/08 A2993 RMK A01 T03840075  RH  016%=      5-min Rain = 0
KLBW 140030Z 20004KT 39/08 A2993 RMK A01 T03850078  RH  016%=      5-min Rain = 0
KLBW 140035Z 20004KT 38/08 A2993 RMK A01 T03840078  RH  016%=      5-min Rain = 0
KLBW 140040Z 20003KT 38/08 A2993 RMK A01 T03840079  RH  016%=      5-min Rain = 0
KLBW 140045Z 19003KT 38/08 A2993 RMK A01 T03830080  RH  016%=      5-min Rain = 0
KLBW 140050Z 20003KT 38/08 A2993 RMK A01 T03810082  RH  017%=      5-min Rain = 0
KLBW 140055Z 20004KT 38/08 A2993 RMK A01 T03780084  RH  017%=      5-min Rain = 0
KLBW 140100Z 20004KT 37/08 A2994 RMK A01 T03740083  RH  018%=      5-min Rain = 0
KLBW 140105Z 21004KT 37/09 A2994 RMK A01 T03700086  RH  018%=      5-min Rain = 0
KLBW 140110Z 21004KT 37/09 A2994 RMK A01 T03650089  RH  019%=      5-min Rain = 0
KLBW 140115Z 21005KT 36/09 A2994 RMK A01 T03590090  RH  020%=      5-min Rain = 0
KLBW 140120Z 21005KT 35/09 A2994 RMK A01 T03520089  RH  021%=      5-min Rain = 0
KLBW 140125Z 21005KT 35/09 A2995 RMK A01 T03460088  RH  021%=      5-min Rain = 0
KLBW 140130Z 20004KT 34/09 A2995 RMK A01 T03410088  RH  022%=      5-min Rain = 0
KLBW 140135Z 20004KT 34/09 A2995 RMK A01 T03360088  RH  022%=      5-min Rain = 0
KLBW 140140Z 19004KT 33/09 A2995 RMK A01 T03340091  RH  023%=      5-min Rain = 0
KLBW 140145Z 20004KT 33/09 A2995 RMK A01 T03300092  RH  024%=      5-min Rain = 0
KLBW 140150Z 19004KT 32/09 A2995 RMK A01 T03230093  RH  025%=      5-min Rain = 0
KLBW 140155Z 18004KT 32/09 A2995 RMK A01 T03170094  RH  026%=      5-min Rain = 0
KLBW 140200Z 18005KT 32/09 A2995 RMK A01 T03160094  RH  026%=      5-min Rain = 0
KLBW 140205Z 18004KT 31/10 A2996 RMK A01 T03130096  RH  027%=      5-min Rain = 0
KLBW 140210Z 19004KT 31/10 A2996 RMK A01 T03110098  RH  028%=      5-min Rain = 0
KLBW 140215Z 19005KT 31/10 A2996 RMK A01 T03080100  RH  028%=      5-min Rain = 0
KLBW 140220Z 19005KT 31/10 A2996 RMK A01 T03060100  RH  029%=      5-min Rain = 0
KLBW 140225Z 20004KT 31/10 A2996 RMK A01 T03050098  RH  029%=      5-min Rain = 0
KLBW 140230Z 20004KT 30/10 A2996 RMK A01 T03040098  RH  029%=      5-min Rain = 0
KLBW 140235Z 20004KT 30/10 A2996 RMK A01 T03020099  RH  029%=      5-min Rain = 0
KLBW 140240Z 20003KT 30/10 A2997 RMK A01 T02980102  RH  031%=      5-min Rain = 0
KLBW 140245Z 19003KT 29/10 A2997 RMK A01 T02910101  RH  032%=      5-min Rain = 0
KLBW 140250Z 20004KT 29/10 A2997 RMK A01 T02870101  RH  032%=      5-min Rain = 0
KLBW 140255Z 21005KT 29/10 A2997 RMK A01 T02940096  RH  030%=      5-min Rain = 0
KLBW 140300Z 21005KT 30/10 A2997 RMK A01 T02990097  RH  029%=      5-min Rain = 0
KLBW 140305Z 21004KT 30/10 A2997 RMK A01 T03000098  RH  029%=      5-min Rain = 0
KLBW 140310Z 20004KT 30/10 A2997 RMK A01 T02970097  RH  030%=      5-min Rain = 0
KLBW 140315Z 21005KT 30/10 A2997 RMK A01 T02980095  RH  029%=      5-min Rain = 0
KLBW 140320Z 21004KT 30/10 A2998 RMK A01 T02970096  RH  029%=      5-min Rain = 0
KLBW 140325Z 20005KT 30/10 A2998 RMK A01 T02970095  RH  029%=      5-min Rain = 0
KLBW 140330Z 21005KT 30/10 A2998 RMK A01 T02970095  RH  029%=      5-min Rain = 0
KLBW 140335Z 21006KT 30/10 A2998 RMK A01 T03000095  RH  029%=      5-min Rain = 0
KLBW 140340Z 21007KT 31/09 A2998 RMK A01 T03060094  RH  028%=      5-min Rain = 0
KLBW 140345Z 21007KT 31/09 A2998 RMK A01 T03070094  RH  028%=      5-min Rain = 0
KLBW 140350Z 21007KT 31/09 A2998 RMK A01 T03080093  RH  027%=      5-min Rain = 0
KLBW 140355Z 21008KT 32/09 A2999 RMK A01 T03150091  RH  026%=      5-min Rain = 0
KLBW 140400Z 20009KT 32/09 A2999 RMK A01 T03180090  RH  025%=      5-min Rain = 0
KLBW 140405Z 20010G15KT 32/09 A2999 RMK A01 T03240088  RH  024%=      5-min Rain = 0
KLBW 140410Z 20009KT 33/09 A2999 RMK A01 T03250088  RH  024%=      5-min Rain = 0
KLBW 140415Z 20010KT 33/09 A2999 RMK A01 T03250087  RH  024%=      5-min Rain = 0
KLBW 140420Z 20009KT 32/09 A2999 RMK A01 T03220088  RH  024%=      5-min Rain = 0
KLBW 140425Z 19008KT 32/09 A2999 RMK A01 T03210089  RH  025%=      5-min Rain = 0
KLBW 140430Z 20009KT 32/09 A2999 RMK A01 T03210089  RH  025%=      5-min Rain = 0
KLBW 140435Z 20009KT 33/09 A2999 RMK A01 T03250088  RH  024%=      5-min Rain = 0
KLBW 140440Z 20008KT 33/09 A2998 RMK A01 T03270088  RH  024%=      5-min Rain = 0
KLBW 140445Z 19008KT 33/09 A2998 RMK A01 T03270089  RH  024%=      5-min Rain = 0
KLBW 140450Z 19008KT 32/09 A2998 RMK A01 T03240089  RH  024%=      5-min Rain = 0
KLBW 140455Z 19008KT 32/09 A2998 RMK A01 T03210089  RH  025%=      5-min Rain = 0

Page generated in 0.0094 seconds.